DTKA/TBJ METAR and TAF weather

Enter ICAO airport designator
Station Type Date Time Source
DTKA METAR 2021/01/16 03:00 UTC NOAA

DTKA 160300Z 22004KT 140V260 8000 -RA SCT020 SCT030 10/07 Q1017 NOSIG


Station Type Date Time Source
DTKA Decoded METAR 2021/01/16 03:00 UTC NOAA

Tabarka, Tunisia (DTKA) 36-57N 008-45E 21M
Jan 15, 2021 - 10:00 PM EST / 2021.01.16 0300 UTC
Wind: from the SW (220 degrees) at 5 MPH (4 KT) (direction variable):0
Visibility: 4 mile(s):0
Sky conditions: partly cloudy
Weather: light rain
Temperature: 50 F (10 C)
Dew Point: 44 F (7 C)
Relative Humidity: 81%
Pressure (altimeter): 30.03 in. Hg (1017 hPa)
ob: DTKA 160300Z 22004KT 140V260 8000 -RA SCT020 SCT030 10/07 Q1017 NOSIG
cycle: 3

Station Type Date Time Source
DTKA TAF 2020/09/02 19:17 UTC NOAA

TAF DTKA 021800Z 0219/0310 35005KT 9999 SCT020

Example: see airport list